createdAt,value
2019-02-02T00:01:42.295Z,17.33
2019-02-02T00:04:10.255Z,17.13
2019-02-02T00:06:37.712Z,17.80
2019-02-02T00:09:07.487Z,17.80
2019-02-02T00:11:36.066Z,16.80
2019-02-02T00:14:05.568Z,16.33
2019-02-02T00:16:33.025Z,18.53
2019-02-02T00:19:00.377Z,17.60
2019-02-02T00:21:27.885Z,18.70
2019-02-02T00:23:55.364Z,18.63
2019-02-02T00:26:22.900Z,17.67
2019-02-02T00:28:50.318Z,18.17
2019-02-02T00:31:17.943Z,18.63
2019-02-02T00:33:45.417Z,16.73
2019-02-02T00:36:12.884Z,16.97
2019-02-02T00:38:40.345Z,18.57
2019-02-02T00:41:08.028Z,17.60
2019-02-02T00:43:38.308Z,19.00
2019-02-02T00:46:04.916Z,19.63
2019-02-02T00:48:32.389Z,20.07
2019-02-02T00:50:59.859Z,19.30
2019-02-02T00:53:27.282Z,18.70
2019-02-02T00:55:54.741Z,16.33
2019-02-02T00:58:22.072Z,16.80
2019-02-02T01:00:49.618Z,18.07
2019-02-02T01:03:16.994Z,18.50
2019-02-02T01:05:44.526Z,19.77
2019-02-02T01:08:11.982Z,18.10
2019-02-02T01:10:40.945Z,18.63
2019-02-02T01:13:08.775Z,18.23
2019-02-02T01:15:36.261Z,17.30
2019-02-02T01:18:04.586Z,18.33
2019-02-02T01:20:32.420Z,19.27
2019-02-02T01:22:59.873Z,19.20
2019-02-02T01:25:27.468Z,18.27
2019-02-02T01:28:04.919Z,18.97
2019-02-02T01:30:24.656Z,18.67
2019-02-02T01:32:52.409Z,19.07
2019-02-02T01:35:20.044Z,18.23
2019-02-02T01:37:47.699Z,18.53
2019-02-02T01:40:17.560Z,18.13
2019-02-02T01:42:45.079Z,19.73
2019-02-02T01:45:16.215Z,19.13
2019-02-02T01:47:43.626Z,18.23
2019-02-02T01:50:13.560Z,19.73
2019-02-02T01:52:40.987Z,18.83
2019-02-02T01:55:09.896Z,19.90
2019-02-02T01:57:37.293Z,18.03
2019-02-02T02:00:06.521Z,18.97
2019-02-02T02:02:33.999Z,20.37
2019-02-02T02:05:01.565Z,18.73
2019-02-02T02:07:31.590Z,16.63
2019-02-02T02:09:59.254Z,17.00
2019-02-02T02:12:26.754Z,18.80
2019-02-02T02:14:54.424Z,19.17
2019-02-02T02:17:21.900Z,18.23
2019-02-02T02:19:49.415Z,18.77
2019-02-02T02:22:16.868Z,17.83
2019-02-02T02:24:44.300Z,19.27
2019-02-02T02:27:11.821Z,17.93
2019-02-02T02:29:39.455Z,17.53
2019-02-02T02:32:06.969Z,17.17
2019-02-02T02:34:34.417Z,17.43
2019-02-02T02:37:01.910Z,15.13
2019-02-02T02:39:29.682Z,17.73
2019-02-02T02:41:57.188Z,16.97
2019-02-02T02:44:24.686Z,16.03
2019-02-02T02:46:52.182Z,16.07
2019-02-02T02:49:19.644Z,15.80
2019-02-02T02:51:47.157Z,15.13
2019-02-02T02:54:14.755Z,15.27
2019-02-02T02:56:42.338Z,15.30
2019-02-02T02:59:10.065Z,16.67
2019-02-02T03:01:37.644Z,15.40
2019-02-02T03:04:05.199Z,14.73
2019-02-02T03:06:32.792Z,16.03
2019-02-02T03:09:06.751Z,14.77
2019-02-02T03:11:35.647Z,16.83
2019-02-02T03:14:03.267Z,14.80
2019-02-02T03:16:31.856Z,15.50
2019-02-02T03:18:59.327Z,14.03
2019-02-02T03:21:26.870Z,15.37
2019-02-02T03:23:54.396Z,15.27
2019-02-02T03:26:21.853Z,15.20
2019-02-02T03:28:53.637Z,14.23
2019-02-02T03:31:18.750Z,15.87
2019-02-02T03:33:46.241Z,14.50
2019-02-02T03:36:13.743Z,15.90
2019-02-02T03:38:41.238Z,13.50
2019-02-02T03:41:08.706Z,15.03
2019-02-02T03:43:36.615Z,15.30
2019-02-02T03:46:03.986Z,15.37
2019-02-02T03:48:31.348Z,14.13
2019-02-02T03:50:58.829Z,13.37
2019-02-02T03:53:26.489Z,15.17
2019-02-02T03:55:54.099Z,14.80
2019-02-02T03:58:21.720Z,14.30
2019-02-02T04:00:49.156Z,14.87
2019-02-02T04:03:17.312Z,14.47
2019-02-02T04:05:44.801Z,14.57
2019-02-02T04:08:12.095Z,13.63
2019-02-02T04:10:39.503Z,14.57
2019-02-02T04:13:06.834Z,15.47
2019-02-02T04:15:34.356Z,14.10
2019-02-02T04:18:01.837Z,15.73
2019-02-02T04:20:29.356Z,15.20
2019-02-02T04:22:56.855Z,13.23
2019-02-02T04:25:24.260Z,15.13
2019-02-02T04:27:51.731Z,14.97
2019-02-02T04:30:21.249Z,14.63
2019-02-02T04:32:48.763Z,15.17
2019-02-02T04:35:16.457Z,15.63
2019-02-02T04:37:44.242Z,14.63
2019-02-02T04:40:12.634Z,14.60
2019-02-02T04:42:40.504Z,15.47
2019-02-02T04:45:09.390Z,15.27
2019-02-02T04:47:36.903Z,14.77
2019-02-02T04:50:05.775Z,14.80
2019-02-02T04:52:33.697Z,15.00
2019-02-02T04:55:01.219Z,14.20
2019-02-02T04:57:28.683Z,14.27
2019-02-02T04:59:56.206Z,14.83
2019-02-02T05:02:23.700Z,17.07
2019-02-02T05:04:51.232Z,17.10
2019-02-02T05:07:20.507Z,16.80
2019-02-02T05:09:47.950Z,15.47
2019-02-02T05:12:15.462Z,16.70
2019-02-02T05:14:43.084Z,15.07
2019-02-02T05:17:10.508Z,13.80
2019-02-02T05:19:38.007Z,14.03
2019-02-02T05:22:05.326Z,15.87
2019-02-02T05:24:33.152Z,17.20
2019-02-02T05:27:01.651Z,16.13
2019-02-02T05:29:41.228Z,16.93
2019-02-02T05:32:00.536Z,16.20
2019-02-02T05:34:28.032Z,16.30
2019-02-02T05:36:55.525Z,16.23
2019-02-02T05:39:22.848Z,15.70
2019-02-02T05:41:50.627Z,13.20
2019-02-02T05:44:18.317Z,15.77
2019-02-02T05:46:45.776Z,15.10
2019-02-02T05:49:15.052Z,15.33
2019-02-02T05:51:42.929Z,14.70
2019-02-02T05:54:10.409Z,15.17
2019-02-02T05:56:37.927Z,14.93
2019-02-02T05:59:05.347Z,15.80
2019-02-02T06:01:32.820Z,14.13
2019-02-02T06:04:00.418Z,14.37
2019-02-02T06:06:29.022Z,16.10
2019-02-02T06:08:56.398Z,17.50
2019-02-02T06:11:23.873Z,16.83
2019-02-02T06:13:51.566Z,16.10
2019-02-02T06:16:19.110Z,16.30
2019-02-02T06:18:46.674Z,15.17
2019-02-02T06:21:14.167Z,15.77
2019-02-02T06:23:41.675Z,15.50
2019-02-02T06:26:09.087Z,14.60
2019-02-02T06:28:36.631Z,16.23
2019-02-02T06:31:04.246Z,15.37
2019-02-02T06:33:31.716Z,19.53
2019-02-02T06:35:59.288Z,17.47
2019-02-02T06:38:27.106Z,16.40
2019-02-02T06:40:55.806Z,16.93
2019-02-02T06:43:23.286Z,16.60
2019-02-02T06:45:50.632Z,17.47
2019-02-02T06:48:18.269Z,17.00
2019-02-02T06:50:45.873Z,17.90
2019-02-02T06:53:13.349Z,15.50
2019-02-02T06:55:40.812Z,16.00
2019-02-02T06:58:08.291Z,14.90
2019-02-02T07:00:35.776Z,16.10
2019-02-02T07:03:03.229Z,14.93
2019-02-02T07:05:33.784Z,14.67
2019-02-02T07:08:00.475Z,13.60
2019-02-02T07:10:27.996Z,13.93
2019-02-02T07:12:56.009Z,14.10
2019-02-02T07:15:25.778Z,16.60
2019-02-02T07:17:53.280Z,16.30
2019-02-02T07:20:21.353Z,17.23
2019-02-02T07:22:48.908Z,20.43
2019-02-02T07:25:16.403Z,21.43
2019-02-02T07:27:43.920Z,18.50
2019-02-02T07:30:14.291Z,19.40
2019-02-02T07:32:41.722Z,18.00
2019-02-02T07:35:09.802Z,16.93
2019-02-02T07:37:37.524Z,16.80
2019-02-02T07:40:06.463Z,15.67
2019-02-02T07:42:34.166Z,16.83
2019-02-02T07:45:06.552Z,17.50
2019-02-02T07:47:34.236Z,13.77
2019-02-02T07:50:01.682Z,15.90
2019-02-02T07:52:29.737Z,16.00
2019-02-02T07:54:57.240Z,16.97
2019-02-02T07:57:24.698Z,17.67
2019-02-02T07:59:52.519Z,18.53
2019-02-02T08:02:19.860Z,17.23
2019-02-02T08:04:47.155Z,18.23
2019-02-02T08:07:14.931Z,18.03
2019-02-02T08:09:42.487Z,18.60
2019-02-02T08:12:10.010Z,17.77
2019-02-02T08:14:37.497Z,16.33
2019-02-02T08:17:04.977Z,19.53
2019-02-02T08:19:32.459Z,20.47
2019-02-02T08:21:59.951Z,18.77
2019-02-02T08:24:27.302Z,21.23
2019-02-02T08:26:54.784Z,23.80
2019-02-02T08:29:22.274Z,20.23
2019-02-02T08:31:49.782Z,18.40
2019-02-02T08:34:17.283Z,20.53
2019-02-02T08:36:44.625Z,22.73
2019-02-02T08:39:12.177Z,25.30
2019-02-02T08:41:39.788Z,26.13
2019-02-02T08:44:07.339Z,20.87
2019-02-02T08:46:34.776Z,23.10
2019-02-02T08:49:02.079Z,28.93
2019-02-02T08:51:29.488Z,32.93
2019-02-02T08:53:57.191Z,36.27
2019-02-02T08:56:24.565Z,38.63
2019-02-02T08:58:52.149Z,29.23
2019-02-02T09:01:19.618Z,23.97
2019-02-02T09:03:47.013Z,21.03
2019-02-02T09:06:14.502Z,19.67
2019-02-02T09:08:41.986Z,17.87
2019-02-02T09:11:09.557Z,20.27
2019-02-02T09:13:37.101Z,17.97
2019-02-02T09:16:04.732Z,17.83
2019-02-02T09:18:32.475Z,18.20
2019-02-02T09:20:59.976Z,16.17
2019-02-02T09:23:27.449Z,16.17
2019-02-02T09:25:54.909Z,17.27
2019-02-02T09:28:22.253Z,15.53
2019-02-02T09:30:49.832Z,15.43
2019-02-02T09:33:17.333Z,15.70
2019-02-02T09:35:44.839Z,14.73
2019-02-02T09:38:12.697Z,16.97
2019-02-02T09:40:40.845Z,16.47
2019-02-02T09:43:08.274Z,17.93
2019-02-02T09:45:35.651Z,16.87
2019-02-02T09:48:03.208Z,17.33
2019-02-02T09:50:30.804Z,19.13
2019-02-02T09:52:58.277Z,17.90
2019-02-02T09:55:25.830Z,17.73
2019-02-02T09:57:55.661Z,19.07
2019-02-02T10:00:28.037Z,22.60
2019-02-02T10:02:55.859Z,26.87
2019-02-02T10:05:23.789Z,26.40
2019-02-02T10:07:51.187Z,21.60
2019-02-02T10:10:21.055Z,20.60
2019-02-02T10:12:48.954Z,19.33
2019-02-02T10:15:17.715Z,19.30
2019-02-02T10:17:45.537Z,18.37
2019-02-02T10:20:15.620Z,19.03
2019-02-02T10:22:43.209Z,18.40
2019-02-02T10:25:12.634Z,16.70
2019-02-02T10:27:40.287Z,13.10
2019-02-02T10:30:13.943Z,10.83
2019-02-02T10:32:41.420Z,9.80
2019-02-02T10:35:09.223Z,11.20
2019-02-02T10:37:36.681Z,11.90
2019-02-02T10:40:07.526Z,11.43
2019-02-02T10:42:35.120Z,11.77
2019-02-02T10:45:02.765Z,10.97
2019-02-02T10:47:30.352Z,10.40
2019-02-02T10:49:57.860Z,10.67
2019-02-02T10:52:25.328Z,12.13
2019-02-02T10:54:52.740Z,11.63
2019-02-02T10:57:20.099Z,11.87
2019-02-02T10:59:49.011Z,11.20
2019-02-02T11:02:17.792Z,10.77
2019-02-02T11:04:46.326Z,10.30
2019-02-02T11:07:13.968Z,10.73
2019-02-02T11:09:41.668Z,11.30
2019-02-02T11:12:09.365Z,10.00
2019-02-02T11:14:37.769Z,10.17
2019-02-02T11:17:05.537Z,10.07
2019-02-02T11:19:33.161Z,10.47
2019-02-02T11:22:00.624Z,10.10
2019-02-02T11:24:28.223Z,12.87
2019-02-02T11:26:55.873Z,12.33
2019-02-02T11:29:23.481Z,9.73
2019-02-02T11:32:02.178Z,9.83
2019-02-02T11:34:21.502Z,8.93
2019-02-02T11:36:48.972Z,9.50
2019-02-02T11:39:16.493Z,8.87
2019-02-02T11:41:43.985Z,9.43
2019-02-02T11:44:11.472Z,9.23
2019-02-02T11:46:39.112Z,11.57
2019-02-02T11:49:06.875Z,9.40
2019-02-02T11:51:34.668Z,10.57
2019-02-02T11:54:02.345Z,9.97
2019-02-02T11:56:29.840Z,10.47
2019-02-02T11:58:57.643Z,9.77
2019-02-02T12:01:25.399Z,7.43
2019-02-02T12:03:52.905Z,8.10
2019-02-02T12:06:20.348Z,7.83
2019-02-02T12:08:49.396Z,9.37
2019-02-02T12:11:17.002Z,8.00
2019-02-02T12:13:44.356Z,7.37
2019-02-02T12:16:12.080Z,7.90
2019-02-02T12:18:39.547Z,7.03
2019-02-02T12:21:07.331Z,8.50
2019-02-02T12:23:34.854Z,9.63
2019-02-02T12:26:02.324Z,8.40
2019-02-02T12:28:29.938Z,7.03
2019-02-02T12:30:57.447Z,7.07
2019-02-02T12:33:25.948Z,7.37
2019-02-02T12:35:53.691Z,6.57
2019-02-02T12:38:21.136Z,6.60
2019-02-02T12:40:48.636Z,6.23
2019-02-02T12:43:16.089Z,6.17
2019-02-02T12:45:46.444Z,6.00
2019-02-02T12:48:15.065Z,5.23
2019-02-02T12:50:42.853Z,5.80
2019-02-02T12:53:10.685Z,5.60
2019-02-02T12:55:38.526Z,4.40
2019-02-02T12:58:07.171Z,5.83
2019-02-02T13:00:34.575Z,6.10
2019-02-02T13:03:02.071Z,5.40
2019-02-02T13:05:29.568Z,4.90
2019-02-02T13:07:57.238Z,6.07
2019-02-02T13:10:25.838Z,7.30
2019-02-02T13:12:53.509Z,7.33
2019-02-02T13:15:20.972Z,7.50
2019-02-02T13:17:49.026Z,8.00
2019-02-02T13:20:16.810Z,8.60
2019-02-02T13:22:44.824Z,7.33
2019-02-02T13:25:14.719Z,6.10
2019-02-02T13:27:43.134Z,5.30
2019-02-02T13:30:14.415Z,5.20
2019-02-02T13:32:49.727Z,6.23
2019-02-02T13:35:13.343Z,4.93
2019-02-02T13:37:41.075Z,5.30
2019-02-02T13:40:11.671Z,5.83
2019-02-02T13:42:39.167Z,4.90
2019-02-02T13:45:07.516Z,4.20
2019-02-02T13:47:35.400Z,13.13
2019-02-02T13:50:03.845Z,13.37
2019-02-02T13:52:32.034Z,14.00
2019-02-02T13:54:59.665Z,13.90
2019-02-02T13:57:27.144Z,13.83
2019-02-02T13:59:54.816Z,14.80
2019-02-02T14:02:22.606Z,14.10
2019-02-02T14:04:50.116Z,14.30
2019-02-02T14:07:18.443Z,13.00
2019-02-02T14:09:46.095Z,14.67
2019-02-02T14:12:13.696Z,13.30
2019-02-02T14:14:41.130Z,14.07
2019-02-02T14:17:08.652Z,13.53
2019-02-02T14:19:36.157Z,14.43
2019-02-02T14:22:03.882Z,13.30
2019-02-02T14:24:31.967Z,13.87
2019-02-02T14:27:00.992Z,13.37
2019-02-02T14:29:28.854Z,13.80
2019-02-02T14:31:56.345Z,12.10
2019-02-02T14:34:23.975Z,12.80
2019-02-02T14:36:51.372Z,13.17
2019-02-02T14:39:19.184Z,12.70
2019-02-02T14:41:48.467Z,12.80
2019-02-02T14:44:15.814Z,14.00
2019-02-02T14:46:43.310Z,13.97
2019-02-02T14:49:11.206Z,19.40
2019-02-02T14:51:39.092Z,15.53
2019-02-02T14:54:06.610Z,15.37
2019-02-02T14:56:34.078Z,14.53
2019-02-02T14:59:03.525Z,12.83
2019-02-02T15:01:30.962Z,10.93
2019-02-02T15:03:58.814Z,10.87
2019-02-02T15:06:26.283Z,10.30
2019-02-02T15:08:54.023Z,10.27
2019-02-02T15:11:21.947Z,10.83
2019-02-02T15:13:49.593Z,10.37
2019-02-02T15:16:18.492Z,10.07
2019-02-02T15:18:46.002Z,10.20
2019-02-02T15:21:13.603Z,12.43
2019-02-02T15:23:41.163Z,12.67
2019-02-02T15:26:08.754Z,13.67
2019-02-02T15:28:36.235Z,13.63
2019-02-02T15:31:03.697Z,12.03
2019-02-02T15:33:37.859Z,13.20
2019-02-02T15:36:02.480Z,12.80
2019-02-02T15:38:31.433Z,12.10
2019-02-02T15:40:59.536Z,12.77
2019-02-02T15:43:27.269Z,13.63
2019-02-02T15:45:54.759Z,14.13
2019-02-02T15:48:22.239Z,13.37
2019-02-02T15:50:49.676Z,14.43
2019-02-02T15:53:17.164Z,13.03
2019-02-02T15:55:44.728Z,15.47
2019-02-02T15:58:12.062Z,14.03
2019-02-02T16:00:39.516Z,13.33
2019-02-02T16:03:08.840Z,13.43
2019-02-02T16:05:36.641Z,13.57
2019-02-02T16:08:10.109Z,13.23
2019-02-02T16:10:37.816Z,14.23
2019-02-02T16:13:05.297Z,15.10
2019-02-02T16:15:34.278Z,13.97
2019-02-02T16:18:02.439Z,14.50
2019-02-02T16:20:32.837Z,15.63
2019-02-02T16:23:00.370Z,14.37
2019-02-02T16:25:27.859Z,15.20
2019-02-02T16:27:55.379Z,16.23
2019-02-02T16:30:24.530Z,16.13
2019-02-02T16:32:52.089Z,14.97
2019-02-02T16:35:19.524Z,15.10
2019-02-02T16:37:47.045Z,15.17
2019-02-02T16:40:17.904Z,15.40
2019-02-02T16:42:45.435Z,15.20
2019-02-02T16:45:14.783Z,14.43
2019-02-02T16:47:42.116Z,14.37
2019-02-02T16:50:11.921Z,13.13
2019-02-02T16:52:39.411Z,13.30
2019-02-02T16:55:07.964Z,13.33
2019-02-02T16:57:35.475Z,13.33
2019-02-02T17:00:04.556Z,14.53
2019-02-02T17:02:32.213Z,14.70
2019-02-02T17:05:00.013Z,14.17
2019-02-02T17:07:27.784Z,16.17
2019-02-02T17:09:55.285Z,15.53
2019-02-02T17:12:22.785Z,16.33
2019-02-02T17:14:50.384Z,14.67
2019-02-02T17:17:17.784Z,14.63
2019-02-02T17:19:45.354Z,15.40
2019-02-02T17:22:12.856Z,13.07
2019-02-02T17:24:40.413Z,14.77
2019-02-02T17:27:08.530Z,14.07
2019-02-02T17:29:36.219Z,14.87
2019-02-02T17:32:04.035Z,16.83
2019-02-02T17:34:31.512Z,18.93
2019-02-02T17:36:58.993Z,19.53
2019-02-02T17:39:26.731Z,17.70
2019-02-02T17:41:54.250Z,15.10
2019-02-02T17:44:21.712Z,16.83
2019-02-02T17:46:49.238Z,16.83
2019-02-02T17:49:16.702Z,18.90
2019-02-02T17:51:44.192Z,26.40
2019-02-02T17:54:11.697Z,23.10
2019-02-02T17:56:39.534Z,21.43
2019-02-02T17:59:07.607Z,21.23
2019-02-02T18:01:35.201Z,21.73
2019-02-02T18:04:04.308Z,21.27
2019-02-02T18:06:31.824Z,20.60
2019-02-02T18:08:59.462Z,19.30
2019-02-02T18:11:26.947Z,20.03
2019-02-02T18:13:54.323Z,19.73
2019-02-02T18:16:27.256Z,21.13
2019-02-02T18:19:29.378Z,19.17
2019-02-02T18:22:03.170Z,19.67
2019-02-02T18:24:30.553Z,19.30
2019-02-02T18:26:58.316Z,19.97
2019-02-02T18:29:26.387Z,17.60
2019-02-02T18:31:53.916Z,19.30
2019-02-02T18:34:23.221Z,21.47
2019-02-02T18:36:50.662Z,19.93
2019-02-02T18:39:18.175Z,22.27
2019-02-02T18:41:45.504Z,23.87
2019-02-02T18:44:12.942Z,27.40
2019-02-02T18:46:40.332Z,25.67
2019-02-02T18:49:07.702Z,23.93
2019-02-02T18:51:35.216Z,24.90
2019-02-02T18:54:03.112Z,23.97
2019-02-02T18:56:30.594Z,24.63
2019-02-02T18:58:58.105Z,24.07
2019-02-02T19:01:25.583Z,25.07
2019-02-02T19:03:53.115Z,27.43
2019-02-02T19:06:20.548Z,26.43
2019-02-02T19:08:48.026Z,26.27
2019-02-02T19:11:16.654Z,26.40
2019-02-02T19:13:44.190Z,27.80
2019-02-02T19:16:11.654Z,26.07
2019-02-02T19:18:39.021Z,25.80
2019-02-02T19:21:06.517Z,24.43
2019-02-02T19:23:35.147Z,25.60
2019-02-02T19:26:02.673Z,25.57
2019-02-02T19:28:39.543Z,26.57
2019-02-02T19:30:59.959Z,26.40
2019-02-02T19:33:27.460Z,24.90
2019-02-02T19:35:54.984Z,25.53
2019-02-02T19:38:22.462Z,26.30
2019-02-02T19:40:50.311Z,25.53
2019-02-02T19:43:17.853Z,27.60
2019-02-02T19:45:45.373Z,28.40
2019-02-02T19:48:13.660Z,27.27
2019-02-02T19:50:41.211Z,28.57
2019-02-02T19:53:08.839Z,29.93
2019-02-02T19:55:36.433Z,28.17
2019-02-02T19:58:04.822Z,28.07
2019-02-02T20:00:32.704Z,27.17
2019-02-02T20:03:01.661Z,27.30
2019-02-02T20:05:29.412Z,27.10
2019-02-02T20:07:57.448Z,24.80
2019-02-02T20:10:25.799Z,26.27
2019-02-02T20:12:53.387Z,25.30
2019-02-02T20:15:22.763Z,24.70
2019-02-02T20:17:50.396Z,24.90
2019-02-02T20:20:19.400Z,24.27
2019-02-02T20:22:47.429Z,24.23
2019-02-02T20:25:15.137Z,24.13
2019-02-02T20:27:42.778Z,24.23
2019-02-02T20:30:14.266Z,23.10
2019-02-02T20:32:41.806Z,22.30
2019-02-02T20:35:10.203Z,21.63
2019-02-02T20:37:38.760Z,23.10
2019-02-02T20:40:08.619Z,24.43
2019-02-02T20:42:36.182Z,27.07
2019-02-02T20:45:09.806Z,43.50
2019-02-02T20:47:52.923Z,30.60
2019-02-02T20:50:20.392Z,27.07
2019-02-02T20:52:48.104Z,22.93
2019-02-02T20:55:18.386Z,21.50
2019-02-02T20:57:46.160Z,20.80
2019-02-02T21:00:15.829Z,22.07
2019-02-02T21:02:43.326Z,20.80
2019-02-02T21:05:10.810Z,20.57
2019-02-02T21:07:38.389Z,23.13
2019-02-02T21:10:08.100Z,22.20
2019-02-02T21:12:35.896Z,21.57
2019-02-02T21:15:05.058Z,21.50
2019-02-02T21:17:32.542Z,20.63
2019-02-02T21:20:00.326Z,22.47
2019-02-02T21:22:27.910Z,23.33
2019-02-02T21:24:55.422Z,23.43
2019-02-02T21:27:23.293Z,23.70
2019-02-02T21:29:50.962Z,23.53
2019-02-02T21:32:18.571Z,22.40
2019-02-02T21:34:46.189Z,24.07
2019-02-02T21:37:13.692Z,25.07
2019-02-02T21:39:41.552Z,23.97
2019-02-02T21:42:09.471Z,23.63
2019-02-02T21:44:43.329Z,29.30
2019-02-02T21:47:06.420Z,27.03
2019-02-02T21:49:34.103Z,27.30
2019-02-02T21:52:01.612Z,28.77
2019-02-02T21:54:29.352Z,31.33
2019-02-02T21:56:57.771Z,31.13
2019-02-02T21:59:25.249Z,33.10
2019-02-02T22:01:52.871Z,33.63
2019-02-02T22:04:20.369Z,25.40
2019-02-02T22:06:48.071Z,25.07
2019-02-02T22:09:15.751Z,42.13
2019-02-02T22:11:43.770Z,34.33
2019-02-02T22:14:11.352Z,25.83
2019-02-02T22:16:38.837Z,29.13
2019-02-02T22:19:06.817Z,29.33
2019-02-02T22:21:34.413Z,32.60
2019-02-02T22:24:02.375Z,27.83
2019-02-02T22:26:30.747Z,25.23
2019-02-02T22:28:58.369Z,25.93
2019-02-02T22:31:25.986Z,26.07
2019-02-02T22:33:53.528Z,28.53
2019-02-02T22:36:27.438Z,25.67
2019-02-02T22:38:50.848Z,27.47
2019-02-02T22:41:18.360Z,26.73
2019-02-02T22:43:46.760Z,27.03
2019-02-02T22:46:14.085Z,25.80
2019-02-02T22:48:41.550Z,26.90
2019-02-02T22:51:09.067Z,24.70
2019-02-02T22:53:36.559Z,25.53
2019-02-02T22:56:04.432Z,32.33
2019-02-02T22:58:31.892Z,33.17
2019-02-02T23:01:24.648Z,28.33
2019-02-02T23:04:22.163Z,26.00
2019-02-02T23:07:44.124Z,26.77
2019-02-02T23:10:49.587Z,26.23
2019-02-02T23:13:25.436Z,27.73
2019-02-02T23:16:28.255Z,31.73
2019-02-02T23:18:56.978Z,30.17
2019-02-02T23:21:25.500Z,32.77
2019-02-02T23:23:53.235Z,31.07
2019-02-02T23:26:21.052Z,29.53
2019-02-02T23:28:48.564Z,30.13
2019-02-02T23:31:17.173Z,28.03
2019-02-02T23:33:44.634Z,27.37
2019-02-02T23:36:13.406Z,28.60
2019-02-02T23:38:41.114Z,26.97
2019-02-02T23:41:08.584Z,26.93
2019-02-02T23:43:36.066Z,26.90
2019-02-02T23:46:03.981Z,25.53
2019-02-02T23:48:31.493Z,25.80
2019-02-02T23:50:59.173Z,25.37
2019-02-02T23:53:26.621Z,26.13
2019-02-02T23:55:54.124Z,25.67
2019-02-02T23:58:21.648Z,25.63
